Weather observations for the past three days for
Claxton Evans County Airport
Metric (Imperial)
Date Time (edt) Wind (kph) Vis. (km) Weather Sky Cond. Temperature (ºC) Relative Humidity Wind Chill (°C) Heat Index (°C) Pressure Precipitation (cm)
Air Dwpt 6 hour altimeter (cm) sea level (mb) 1 hr 3 hr 6 hr
Max. Min.
10 10:35 Vrbl 4 16.09 A Few Clouds FEW016 23 20 83% 76.28 0.0
10 10:15 W 7 16.09 Partly Cloudy SCT014 22 20 88% 76.25 0.0
10 09:55 W 11 16.09 Partly Cloudy SCT014 22 20 88% 76.25 0.0
10 09:35 W 7 16.09 Fair CLR 22 20 88% 76.25 0.0
10 08:55 W 7 16.09 Fair CLR 21 20 94% 76.25 0.0
10 08:35 W 9 16.09 Partly Cloudy SCT002 20 20 100% 76.25 0.0
10 08:15 W 7 16.09 Partly Cloudy SCT002 20 20 100% 76.25 0.0
10 07:55 Vrbl 4 16.09 A Few Clouds FEW120 19 19 19.7 18.7 100% 76.25 0.0
10 07:35 NW 4 14.48 Mostly Cloudy BKN120 19 19 100% 76.23 0.0
10 07:15 Calm 12.87 Light Rain SCT050 SCT070 OVC110 19 19 100% 76.17 0.0
10 06:55 Vrbl 2 8.05 Fog/Mist SCT065 BKN075 OVC110 19 19 100% 76.2 0.0
10 06:35 Calm 14.48 Overcast FEW055 BKN065 OVC100 19 19 100% 76.17 0.0
10 06:15 NW 4 9.66 Fog/Mist BKN060 OVC100 19 19 100% 76.15 0.0
10 05:55 Calm 11.27 Fog/Mist OVC070 19 19 100% 76.15 0.0
10 05:35 W 4 16.09 Overcast OVC070 19 19 100% 76.15 0.0
10 05:15 W 4 16.09 Overcast OVC070 19 19 100% 76.15 0.0
10 04:55 Vrbl 4 16.09 Overcast OVC070 19 19 100% 76.12 0.0
10 04:35 Vrbl 7 12.87 Light Rain SCT002 OVC070 19 19 100% 76.1 0.0
10 04:15 Vrbl 2 14.48 Overcast SCT002 BKN055 OVC110 19 19 100% 76.07 0.0
10 03:55 Vrbl 4 14.48 Overcast SCT002 BKN070 OVC110 19 19 100% 76.07 0.0 0.03
10 03:35 Vrbl 4 14.48 Overcast SCT050 BKN075 OVC110 19 19 100% 76.07 0.0
10 03:15 Vrbl 6 9.66 Fog/Mist BKN120 19 19 100% 76.05 0.0
10 02:55 S 4 11.27 Fog/Mist SCT080 BKN110 19 19 100% 76.05 0.0 0.03
10 02:35 SW 6 9.66 Fog/Mist SCT080 BKN110 19 19 100% 76.07 0.0
10 02:15 Vrbl 4 9.66 Light Rain Fog/Mist FEW041 SCT070 BKN110 19 19 100% 76.02 0.0
10 01:55 NW 6 8.05 Light Rain Fog/Mist BKN036 BKN060 BKN075 20 20 20.7 19.2 100% 76.05 0.0
10 01:35 Calm 16.09 Overcast OVC038 20 20 100% 76.07 0.0
10 01:15 SW 4 16.09 Overcast OVC040 19 19 100% 76.12 0.0
10 00:55 Calm 16.09 Overcast OVC044 20 20 100% 76.1 0.0
10 00:35 SW 2 16.09 Overcast BKN044 OVC070 20 20 100% 76.12 0.0
10 00:15 W 6 16.09 Overcast SCT046 BKN070 OVC100 20 20 100% 76.12 0.0
09 23:55 W 6 16.09 Overcast OVC110 20 20 100% 76.1 0.0
09 23:15 SW 4 16.09 Overcast OVC100 19 19 100% 76.07 0.0
09 22:55 W 4 16.09 Mostly Cloudy BKN110 20 20 100% 76.07 0.0
09 22:35 Vrbl 6 16.09 A Few Clouds FEW100 FEW120 20 20 100% 76.07 0.0
09 22:15 Vrbl 4 16.09 Partly Cloudy SCT100 20 20 100% 76.07 0.0
09 21:55 SW 7 16.09 A Few Clouds FEW100 20 20 100% 76.05 0.0
09 21:35 SW 6 16.09 Fair CLR 20 20 100% 76.05 0.0
09 21:15 Vrbl 6 16.09 Fair CLR 20 20 100% 76.05 0.0
09 20:55 Vrbl 4 16.09 Fair CLR 20 20 100% 76.02 0.0
09 20:35 Vrbl 6 16.09 Fair CLR 20 20 100% 76 0.0
09 20:15 Vrbl 4 16.09 Fair CLR 20 20 100% 76 0.0
09 19:55 SW 4 16.09 Fair CLR 21 20 21.8 20.3 94% 75.97 0.0
09 19:35 Vrbl 6 16.09 Fair CLR 21 20 94% 75.95 0.0
09 19:15 Vrbl 9 16.09 A Few Clouds FEW012 21 20 94% 76 0.0
09 18:55 Vrbl 7 16.09 A Few Clouds FEW012 21 20 94% 75.97 0.0
09 18:35 Vrbl 9 16.09 Fair CLR 21 20 94% 75.95 0.0
09 18:15 Vrbl 4 16.09 Partly Cloudy SCT012 22 20 88% 75.92 0.0
09 17:55 Vrbl 4 16.09 Partly Cloudy SCT012 SCT120 22 20 88% 75.95 0.0
09 17:35 Vrbl 6 16.09 Partly Cloudy SCT120 22 21 94% 75.92 0.0
09 17:15 Vrbl 7 16.09 Partly Cloudy FEW011 FEW039 SCT120 21 20 94% 75.95 0.0
09 16:55 Vrbl 4 16.09 Light Rain FEW012 FEW037 FEW120 21 21 100% 75.97 0.0 0.03
09 16:35 Vrbl 4 16.09 Light Rain CLR 21 21 100% 75.95 0.0
09 16:15 Vrbl 6 16.09 Light Rain FEW014 21 21 100% 75.97 0.0
09 15:55 Vrbl 6 16.09 Light Rain SCT014 SCT020 22 20 88% 75.97 0.0
09 15:35 W 6 16.09 Light Rain SCT014 BKN020 22 21 94% 75.97 0.0
09 15:15 W 6 16.09 Partly Cloudy SCT021 21 20 94% 76 0.0
09 14:55 W 9 16.09 Partly Cloudy SCT019 21 20 94% 76 0.0 0.03
09 14:35 NW 17 16.09 Light Rain FEW010 BKN017 21 20 94% 76.05 0.0
09 14:15 NW 20 G 30 12.87 Light Rain SCT008 21 20 94% 76.05 0.0
09 13:55 S 15 G 31 11.27 Light Rain Fog/Mist CLR 20 20 23.9 17.6 100% 75.92 0.0 0.05
09 13:35 S 15 G 26 16.09 Light Rain CLR 21 20 94% 75.97 0.0
09 13:15 Vrbl 9 12.87 Light Rain FEW060 FEW085 21 21 100% 76.02 0.0
09 12:55 Vrbl 7 16.09 Light Rain FEW060 SCT100 21 20 94% 76.02 0.0 0.05
09 12:35 Vrbl 6 12.87 Light Rain FEW100 22 20 88% 76.02 0.0
09 12:15 Vrbl 7 14.48 Light Rain FEW100 22 20 88% 76.05 0.0
09 11:55 Vrbl 9 16.09 Light Rain FEW120 23 19 78% 76.05 0.0
09 11:35 W 7 16.09 Fair CLR 24 19 74% 25 76.05 0.0
09 11:15 Vrbl 9 16.09 Fair CLR 24 19 74% 25 76.05 0.0
09 10:55 Vrbl 9 16.09 Fair CLR 23 19 78% 76.07 0.0
09 10:35 Vrbl 7 16.09 Partly Cloudy SCT110 23 20 83% 76.07 0.0
09 10:15 Vrbl 6 16.09 Mostly Cloudy BKN110 21 20 94% 76.07 0.0
09 09:55 Vrbl 7 16.09 Mostly Cloudy BKN110 21 20 94% 76.07 0.0
09 09:35 Vrbl 6 16.09 Mostly Cloudy FEW004 SCT080 BKN110 20 20 100% 76.07 0.0
09 09:15 Vrbl 4 16.09 Overcast FEW002 BKN080 OVC100 20 20 100% 76.07 0.0
09 08:55 Calm 16.09 Overcast BKN002 OVC080 19 19 100% 76.05 0.0
09 08:35 Calm 16.09 Overcast OVC002 19 19 100% 76.07 0.0
09 08:15 N 4 12.87 Overcast OVC002 18 18 100% 76.05 0.0
09 07:55 Calm 4.02 Fog/Mist OVC002 18 18 17.9 17.1 100% 76.02 0.0
09 07:35 Vrbl 2 1.21 Fog/Mist OVC002 17 17 100% 76.02 0.0
09 07:15 S 2 0.24 Fog OVC002 17 17 100% 76.02 0.0
09 06:55 SE 2 0.24 Fog OVC002 17 17 100% 76 0.0
09 06:35 SE 2 0.24 Fog OVC002 17 17 100% 75.97 0.0
09 06:15 E 4 0.24 Fog OVC002 17 17 100% 75.95 0.0
09 05:55 Calm 0.24 Fog OVC002 18 18 100% 75.95 0.0
09 05:35 Vrbl 4 0.24 Fog OVC002 17 17 100% 75.92 0.0
09 05:15 SE 4 0.40 Fog OVC002 18 18 100% 75.92 0.0
09 04:55 E 4 4.02 Fog/Mist OVC002 18 18 100% 75.95 0.0
09 04:35 E 4 6.44 Fog/Mist OVC002 18 18 100% 75.95 0.0
09 03:55 NE 6 8.05 Fog/Mist OVC002 18 18 100% 75.92 0.0
09 03:35 E 2 8.05 Fog/Mist OVC004 18 18 100% 75.97 0.0
09 03:15 SE 4 12.87 Overcast OVC004 18 18 100% 76.02 0.0
09 02:55 NW 6 11.27 Fog/Mist SCT002 18 18 100% 76.02 0.0
09 02:35 Vrbl 4 11.27 A Few Clouds FEW002 FEW100 FEW120 17 17 100% 76 0.0
09 02:15 S 6 11.27 Fog/Mist CLR 18 18 100% 76.02 0.0
09 01:55 E 4 11.27 Fog/Mist SCT008 18 18 21.4 17.7 100% 76.02 0.0
09 01:35 NE 4 12.87 Mostly Cloudy BKN008 18 18 100% 76.05 0.0
09 01:15 Vrbl 2 16.09 Overcast OVC008 18 18 100% 76.1 0.0
09 00:55 NW 11 16.09 Overcast BKN008 BKN032 OVC060 18 18 100% 76.12 0.0
09 00:35 Vrbl 2 11.27 Light Rain SCT060 BKN075 OVC100 18 18 100% 76.1 0.0
09 00:15 NW 7 16.09 Overcast BKN075 BKN090 OVC110 18 18 100% 76.12 0.0
08 23:55 Vrbl 2 16.09 Overcast FEW050 BKN075 OVC090 18 18 100% 76.15 0.0 0.03
08 23:35 SE 7 16.09 Light Rain SCT060 BKN070 OVC100 18 18 100% 76.12 0.0
08 23:15 Vrbl 6 16.09 Light Rain SCT060 BKN070 OVC110 18 18 100% 76.15 0.0
08 22:55 SE 11 16.09 Overcast FEW060 BKN070 OVC100 18 18 100% 76.15 0.0
08 22:35 Vrbl 4 16.09 Overcast FEW038 BKN070 OVC100 18 18 100% 76.17 0.0
08 22:15 Vrbl 4 16.09 Light Rain SCT060 BKN075 BKN100 18 18 100% 76.17 0.0
08 21:55 Vrbl 4 16.09 Light Rain SCT055 BKN075 BKN100 19 18 94% 76.17 0.0 0.03
08 21:35 Vrbl 4 14.48 Light Rain FEW024 SCT075 BKN090 19 17 88% 76.2 0.0
08 21:15 S 7 16.09 Light Rain SCT065 BKN075 OVC100 20 16 78% 76.23 0.0
08 20:35 Vrbl 7 16.09 Mostly Cloudy SCT036 BKN100 BKN120 21 16 73% 76.15 0.0
08 20:15 SE 7 16.09 Partly Cloudy FEW036 SCT100 21 16 73% 76.12 0.0
08 19:55 SE 13 16.09 Fair CLR 21 16 24.8 21.4 73% 76.12 0.0
08 19:35 SE 11 16.09 Fair CLR 22 16 69% 76.07 0.0
08 19:15 SE 6 16.09 Fair CLR 23 16 65% 76.07 0.0
08 18:55 SE 7 16.09 Fair CLR 23 16 65% 76.05 0.0
08 18:15 E 4 16.09 Fair CLR 24 15 57% 25 76.02 0.0
08 17:55 Vrbl 6 16.09 Fair CLR 24 15 57% 25 76.02 0.0
08 17:35 SE 6 16.09 Fair CLR 24 15 57% 25 76.05 0.0
08 17:15 Vrbl 6 16.09 Fair CLR 24 15 57% 25 76.05 0.0
08 16:55 Vrbl 7 16.09 Fair CLR 24 14 54% 25 76.02 0.0
08 16:35 SE 9 16.09 Fair CLR 24 14 54% 25 76.07 0.0
08 16:15 Vrbl 11 16.09 Fair CLR 24 14 54% 25 76.1 0.0
08 15:55 SE 9 16.09 Fair CLR 24 14 54% 25 76.15 0.0
08 15:35 Vrbl 7 16.09 Fair CLR 24 14 54% 25 76.12 0.0
08 15:15 Vrbl 6 16.09 Fair CLR 24 13 50% 25 76.15 0.0
08 14:55 Vrbl 6 16.09 Fair CLR 24 13 50% 25 76.15 0.0
08 14:35 E 9 16.09 Fair CLR 25 13 47% 26 76.15 0.0
08 14:15 Vrbl 4 16.09 Fair CLR 24 13 50% 25 76.2 0.0
08 13:55 Vrbl 4 16.09 Fair CLR 24 13 24.7 17.3 50% 25 76.2 0.0
08 13:35 NE 17 16.09 Fair CLR 24 13 50% 25 76.23 0.0
08 13:15 E 11 16.09 Fair CLR 23 13 53% 76.25 0.0
08 12:55 Vrbl 7 16.09 Fair CLR 23 13 53% 76.25 0.0
08 12:35 SE 11 16.09 Fair CLR 23 13 53% 76.25 0.0
08 12:15 Vrbl 11 16.09 Fair CLR 23 13 53% 76.28 0.0
08 11:55 E 11 16.09 Fair CLR 22 12 53% 76.3 0.0
08 11:35 E 13 16.09 Fair CLR 21 12 57% 76.33 0.0
08 11:15 NE 13 16.09 Fair CLR 20 12 60% 76.3 0.0
08 10:55 E 13 16.09 Fair CLR 20 11 56% 76.33 0.0
08 10:35 E 17 16.09 Fair CLR 20 11 56% 76.33 0.0
08 10:15 E 15 G 30 16.09 Fair CLR 20 12 60% 76.3 0.0
08 09:55 NE 17 16.09 Fair CLR 19 12 64% 76.3 0.0
08 09:15 NE 17 16.09 Fair CLR 18 13 73% 76.28 0.0
08 08:35 NE 11 16.09 Fair CLR 18 14 78% 76.25 0.0
08 08:16 NE 7 16.09 Fair CLR 18 14 78% 76.25 0.0
08 07:55 Vrbl 6 16.09 Fair CLR 17 14 20.8 15.2 83% 76.2 0.0
08 07:35 N 6 16.09 Fair CLR 17 14 83% 76.17 0.0
08 07:15 Vrbl 4 16.09 Fair CLR 17 14 83% 76.15 0.0
08 06:55 N 7 16.09 Fair CLR 16 15 94% 76.12 0.0
08 06:35 Calm 16.09 A Few Clouds FEW035 16 15 94% 76.12 0.0
08 06:15 W 2 16.09 Partly Cloudy SCT035 16 15 94% 76.1 0.0
08 05:55 W 6 16.09 Partly Cloudy SCT035 17 16 94% 76.1 0.0
08 05:35 Vrbl 2 16.09 Fair CLR 17 16 94% 76.07 0.0
08 05:15 Vrbl 2 16.09 Fair CLR 17 16 94% 76.05 0.0
08 04:55 Vrbl 4 16.09 Fair CLR 19 14 73% 76.05 0.0
08 04:35 Vrbl 6 16.09 Fair CLR 19 15 78% 76.02 0.0
08 04:15 Vrbl 4 16.09 A Few Clouds FEW043 19 15 78% 76.02 0.0
08 03:35 Calm 16.09 Fair CLR 20 15 73% 76.02 0.0
08 03:15 Vrbl 6 16.09 A Few Clouds FEW037 20 15 73% 76.05 0.0
08 02:55 NW 6 16.09 A Few Clouds FEW030 20 16 78% 76.05 0.0
08 02:35 NW 7 16.09 Mostly Cloudy BKN032 20 16 78% 76.05 0.0
08 02:15 NW 7 16.09 Partly Cloudy SCT030 20 16 78% 76.07 0.0
08 01:55 NW 11 16.09 A Few Clouds FEW028 21 16 25.9 20.1 73% 76.07 0.0
08 01:35 NW 13 16.09 Fair CLR 21 17 78% 76.07 0.0
08 01:15 N 11 16.09 A Few Clouds FEW024 FEW030 21 19 88% 76.05 0.0
08 00:55 NW 11 16.09 Mostly Cloudy SCT018 BKN023 BKN028 22 21 94% 76.02 0.0
08 00:35 NW 15 16.09 Mostly Cloudy SCT018 BKN028 BKN034 21 21 100% 76.02 0.0
08 00:15 Vrbl 4 16.09 Partly Cloudy FEW038 SCT049 21 21 100% 75.97 0.0
07 23:55 W 2 8.05 Fog/Mist BKN049 21 21 100% 75.97 0.0
07 23:35 Vrbl 4 12.87 Mostly Cloudy BKN047 21 21 100% 76 0.0
07 22:55 W 4 16.09 Fair CLR 21 21 100% 75.95 0.0
07 22:35 W 6 16.09 Fair CLR 22 22 100% 75.95 0.0
07 22:15 Vrbl 7 16.09 A Few Clouds FEW043 22 22 100% 75.92 0.0
07 21:55 SW 4 16.09 Partly Cloudy SCT025 SCT043 22 22 100% 75.92 0.0
07 21:35 W 7 16.09 Partly Cloudy SCT025 23 22 94% 75.92 0.0
07 21:15 Vrbl 7 16.09 Partly Cloudy SCT025 SCT048 23 22 94% 75.87 0.0
07 20:55 W 7 16.09 Mostly Cloudy SCT025 BKN031 BKN055 25 22 83% 26 75.87 0.0
07 20:35 W 7 16.09 Overcast BKN024 BKN032 OVC043 25 22 83% 26 75.87 0.0
07 20:15 W 11 16.09 Overcast OVC024 26 22 79% 28 75.84 0.0
07 19:55 W 11 16.09 Mostly Cloudy SCT028 BKN035 BKN055 26 21 27.7 25.8 74% 27 75.84 0.0
07 19:35 W 15 16.09 Mostly Cloudy SCT030 BKN037 BKN044 26 21 74% 27 75.82 0.0
07 19:15 W 13 16.09 Overcast SCT030 BKN038 OVC060 26 21 74% 27 75.82 0.0
07 18:55 SW 11 16.09 Mostly Cloudy FEW029 SCT037 BKN060 27 21 70% 29 75.79 0.0
07 18:35 SW 13 16.09 Overcast BKN029 BKN035 OVC060 27 22 74% 29 75.79 0.0
07 18:15 W 9 16.09 Overcast BKN030 OVC035 26 22 79% 28 75.79 0.0
07 17:55 SW 13 16.09 Overcast BKN029 OVC037 27 22 74% 29 75.79 0.0
07 17:35 Vrbl 9 16.09 Overcast BKN029 OVC035 27 22 74% 29 75.79 0.0
07 17:15 W 19 G 30 16.09 Overcast OVC029 27 21 70% 29 75.79 0.0
07 16:55 W 19 G 39 16.09 Overcast OVC029 27 21 70% 29 75.77 0.0
07 16:35 SW 13 G 31 16.09 Overcast OVC031 27 21 70% 29 75.79 0.0
07 16:15 W 26 G 43 16.09 Mostly Cloudy BKN031 27 21 70% 29 75.79 0.0
07 15:35 W 26 G 43 16.09 A Few Clouds FEW029 FEW035 27 21 70% 29 75.82 0.0
07 15:15 SW 26 G 44 16.09 A Few Clouds FEW029 26 20 70% 27 75.84 0.0
07 14:55 W 22 G 37 16.09 Fair CLR 26 20 70% 27 75.82 0.0
07 14:35 SW 20 G 43 16.09 Fair CLR 26 20 70% 27 75.84 0.0
07 14:15 SW 22 G 41 16.09 A Few Clouds FEW050 26 20 70% 27 75.84 0.0
07 13:56 W 17 G 35 16.09 Mostly Cloudy BKN048 27 20 66% 29 75.84 0.0
07 13:15 SW 22 G 33 16.09 A Few Clouds FEW039 26 20 70% 27 75.84 0.0
07 12:55 SW 15 G 33 16.09 Fair CLR 26 20 70% 27 75.84 0.0
07 12:35 SW 15 G 26 16.09 Fair CLR 25 20 74% 26 75.87 0.0
07 11:55 W 15 16.09 Fair CLR 23 20 83% 75.95 0.0
07 11:35 W 17 G 28 16.09 Fair CLR 22 19 83% 75.95 0.0
07 11:15 Vrbl 6 16.09 Fair CLR 22 19 83% 75.92 0.0
Date Time (edt) Wind (kph) Vis. (km) Weather Sky Cond. Air Dwpt Max. Min. Relative Humidity Wind Chill (°C) Heat Index (°C) altimeter (cm) sea level (mb) 1 hr 3 hr 6 hr
6 hour
Temperature (ºC) Pressure Precipitation (cm)